Time;durP1;ratioP1;P1;durP2;ratioP2;P2;SDS_P1;SDS_P2;PMS_P1;PMS_P2;Temp;Humidity;BMP_temperature;BMP_pressure;BME280_temperature;BME280_humidity;BME280_pressure;Samples;Min_cycle;Max_cycle;Signal;HPM_P1;HPM_P2
2023/05/30 00:00:45;;;;;;;10.60;5.30;;;;;;;14.32;62.57;98739.02;104611;1265;96568;-63
2023/05/30 00:03:12;;;;;;;11.10;5.90;;;;;;;14.34;62.66;98744.04;104638;1260;97782;-64
2023/05/30 00:05:39;;;;;;;10.40;5.90;;;;;;;14.36;62.62;98745.86;104646;1265;97023;-63
2023/05/30 00:08:06;;;;;;;9.40;5.70;;;;;;;14.39;62.56;98738.02;104668;1265;96684;-64
2023/05/30 00:10:34;;;;;;;11.30;6.40;;;;;;;14.41;62.46;98740.98;104565;1264;96588;-63
2023/05/30 00:13:03;;;;;;;10.70;5.90;;;;;;;14.40;62.46;98740.28;104629;1265;96669;-65
2023/05/30 00:15:31;;;;;;;11.70;5.90;;;;;;;14.41;62.27;98741.09;104692;1265;96536;-64
2023/05/30 00:18:00;;;;;;;11.70;6.30;;;;;;;14.40;62.31;98738.79;104715;1265;110454;-64
2023/05/30 00:20:29;;;;;;;9.90;6.10;;;;;;;14.37;62.49;98738.88;104467;1268;98718;-66
2023/05/30 00:23:01;;;;;;;10.90;5.70;;;;;;;14.33;62.53;98736.52;104459;1260;107526;-62
2023/05/30 00:25:29;;;;;;;9.80;5.60;;;;;;;14.30;62.55;98731.80;104652;1266;96666;-62
2023/05/30 00:27:56;;;;;;;10.40;5.30;;;;;;;14.29;62.45;98734.73;104575;1268;96632;-64
2023/05/30 00:30:23;;;;;;;11.50;5.10;;;;;;;14.28;62.63;98734.25;104614;1266;96567;-63
2023/05/30 00:32:50;;;;;;;12.20;6.00;;;;;;;14.24;63.00;98733.44;104635;1275;96633;-63
2023/05/30 00:35:17;;;;;;;8.30;5.50;;;;;;;14.20;62.81;98733.09;104649;1277;98098;-63
2023/05/30 00:37:45;;;;;;;9.40;5.80;;;;;;;14.17;63.06;98732.36;104697;1265;96574;-63
2023/05/30 00:40:12;;;;;;;11.10;5.70;;;;;;;14.14;63.15;98732.30;104674;1260;96597;-63
2023/05/30 00:42:39;;;;;;;10.90;5.20;;;;;;;14.13;63.33;98729.73;104664;1273;96581;-64
2023/05/30 00:45:08;;;;;;;7.90;5.20;;;;;;;14.11;63.32;98733.88;104642;1265;97583;-63
2023/05/30 00:47:36;;;;;;;12.30;6.00;;;;;;;14.10;63.59;98731.92;104653;1265;96527;-64
2023/05/30 00:50:06;;;;;;;7.90;5.30;;;;;;;14.09;63.76;98727.30;104367;1268;97898;-63
2023/05/30 00:52:34;;;;;;;6.90;5.40;;;;;;;14.06;63.89;98730.12;104386;1267;98854;-63
2023/05/30 00:55:03;;;;;;;9.80;5.90;;;;;;;14.05;63.94;98732.06;104289;1266;109544;-62
2023/05/30 00:57:34;;;;;;;8.70;5.40;;;;;;;14.08;63.91;98723.72;104511;1270;98389;-65
2023/05/30 01:00:04;;;;;;;11.70;6.00;;;;;;;14.11;63.89;98723.69;104578;1260;108796;-64
2023/05/30 01:02:35;;;;;;;11.00;5.60;;;;;;;14.09;64.15;98725.13;104639;1265;96634;-63
2023/05/30 01:05:02;;;;;;;9.20;5.00;;;;;;;14.06;64.32;98722.95;104235;1271;96691;-65
2023/05/30 01:07:31;;;;;;;10.00;5.10;;;;;;;14.04;64.45;98723.21;104592;1266;110846;-66
2023/05/30 01:10:00;;;;;;;10.40;5.20;;;;;;;14.05;64.14;98725.61;105079;1260;98845;-62
2023/05/30 01:12:38;;;;;;;8.70;5.30;;;;;;;14.10;64.25;98724.99;104552;1265;108331;-64
2023/05/30 01:15:32;;;;;;;10.00;5.30;;;;;;;14.17;64.06;98725.25;104255;1269;96687;-63
2023/05/30 01:18:05;;;;;;;8.50;5.00;;;;;;;14.22;63.98;98724.73;104586;1263;96753;-63
2023/05/30 01:20:37;;;;;;;11.00;5.00;;;;;;;14.22;64.22;98726.51;104194;1279;109689;-63
2023/05/30 01:23:16;;;;;;;13.40;5.80;;;;;;;14.21;64.27;98730.25;104392;1270;98127;-64
2023/05/30 01:26:14;;;;;;;9.80;5.10;;;;;;;14.20;64.40;98728.90;104523;1273;108150;-65
2023/05/30 01:28:44;;;;;;;10.70;5.20;;;;;;;14.18;64.58;98725.29;104351;1277;96652;-65
2023/05/30 01:31:12;;;;;;;12.80;6.00;;;;;;;14.16;64.95;98727.02;104531;1275;97875;-64
2023/05/30 01:33:43;;;;;;;9.50;5.40;;;;;;;14.09;65.28;98726.08;104368;1268;109329;-63
2023/05/30 01:36:10;;;;;;;10.70;5.40;;;;;;;13.99;65.47;98728.05;104577;1265;98954;-63
2023/05/30 01:38:37;;;;;;;9.20;5.60;;;;;;;13.93;65.56;98728.77;104636;1265;96618;-64
2023/05/30 01:41:21;;;;;;;9.40;5.60;;;;;;;13.90;65.88;98728.17;104570;1276;96591;-65
2023/05/30 01:44:13;;;;;;;9.30;6.10;;;;;;;13.82;65.96;98728.75;104623;1266;96569;-65
2023/05/30 01:46:49;;;;;;;11.30;6.00;;;;;;;13.78;66.02;98731.73;104483;1265;110810;-64
2023/05/30 01:49:30;;;;;;;9.60;5.90;;;;;;;13.74;66.31;98735.27;104581;1268;98168;-66
2023/05/30 01:52:05;;;;;;;9.30;6.80;;;;;;;13.68;66.43;98735.84;104588;1266;108547;-64
2023/05/30 01:54:35;;;;;;;11.00;5.60;;;;;;;13.64;66.52;98734.02;104549;1267;96603;-66
2023/05/30 01:57:07;;;;;;;11.30;5.30;;;;;;;13.64;66.40;98733.41;104528;1267;97368;-66
2023/05/30 01:59:36;;;;;;;11.00;5.80;;;;;;;13.69;66.46;98740.81;104530;1269;111025;-65
2023/05/30 02:02:04;;;;;;;11.40;6.00;;;;;;;13.75;66.29;98743.89;104603;1266;99211;-65
2023/05/30 02:04:31;;;;;;;14.40;6.60;;;;;;;13.79;66.29;98746.10;104534;1269;107642;-65
2023/05/30 02:06:58;;;;;;;31.40;12.90;;;;;;;13.79;66.47;98745.33;104571;1265;97487;-64
2023/05/30 02:09:27;;;;;;;39.50;16.60;;;;;;;13.78;66.61;98744.95;104372;1265;96588;-65
2023/05/30 02:11:54;;;;;;;37.40;15.80;;;;;;;13.76;66.57;98750.69;104520;1268;109626;-64
2023/05/30 02:14:22;;;;;;;17.60;8.90;;;;;;;13.76;66.55;98749.75;104514;1269;98178;-65
2023/05/30 02:16:49;;;;;;;11.00;6.20;;;;;;;13.76;66.64;98749.77;104324;1269;96769;-65
2023/05/30 02:19:18;;;;;;;18.80;9.10;;;;;;;13.73;66.69;98747.69;104583;1265;96580;-66
2023/05/30 02:21:45;;;;;;;23.90;10.70;;;;;;;13.71;66.72;98746.48;104591;1260;96591;-66
2023/05/30 02:24:13;;;;;;;17.30;9.50;;;;;;;13.66;66.91;98744.03;104355;1279;110963;-65
2023/05/30 02:26:40;;;;;;;14.70;6.80;;;;;;;13.63;66.80;98747.67;104317;1268;98806;-65
2023/05/30 02:29:10;;;;;;;24.10;11.10;;;;;;;13.62;66.82;98745.19;104398;1274;96584;-71
2023/05/30 02:31:46;;;;;;;14.10;7.30;;;;;;;13.61;66.93;98748.14;104340;1277;96783;-65
2023/05/30 02:34:18;;;;;;;13.40;6.60;;;;;;;13.55;67.60;98742.70;104520;1268;96744;-64
2023/05/30 02:36:49;;;;;;;8.50;5.70;;;;;;;13.49;67.57;98742.94;104515;1263;110745;-65
2023/05/30 02:39:24;;;;;;;9.90;5.90;;;;;;;13.48;67.68;98743.42;104411;1268;97235;-64
2023/05/30 02:41:57;;;;;;;11.10;5.80;;;;;;;13.47;67.55;98742.91;104333;1276;106985;-62
2023/05/30 02:44:25;;;;;;;26.40;11.00;;;;;;;13.48;67.65;98744.14;104499;1267;96612;-62
2023/05/30 02:46:52;;;;;;;33.00;12.80;;;;;;;13.47;67.69;98747.73;104498;1266;96577;-63
2023/05/30 02:49:20;;;;;;;21.50;9.50;;;;;;;13.48;67.66;98746.02;104501;1264;112468;-64
2023/05/30 02:51:47;;;;;;;15.50;6.70;;;;;;;13.51;67.60;98748.87;104479;1274;99196;-63
2023/05/30 02:54:14;;;;;;;20.00;6.70;;;;;;;13.55;67.65;98751.55;104640;1271;97550;-63
2023/05/30 02:56:41;;;;;;;12.70;6.70;;;;;;;13.59;67.70;98754.18;104572;1276;96600;-63
2023/05/30 02:59:09;;;;;;;10.30;5.90;;;;;;;13.60;67.58;98753.40;104578;1274;96604;-63
2023/05/30 03:01:36;;;;;;;15.10;7.90;;;;;;;13.63;67.59;98754.44;104576;1276;96599;-63
2023/05/30 03:04:04;;;;;;;18.50;9.60;;;;;;;13.66;67.51;98756.83;104552;1267;96572;-63
2023/05/30 03:06:31;;;;;;;16.80;7.30;;;;;;;13.65;67.88;98757.84;104538;1269;96981;-63
2023/05/30 03:09:00;;;;;;;9.80;6.30;;;;;;;13.63;68.30;98766.56;104480;1277;96604;-62
2023/05/30 03:11:27;;;;;;;15.80;6.90;;;;;;;13.59;68.55;98774.91;104323;1279;97317;-63
2023/05/30 03:13:55;;;;;;;13.80;6.40;;;;;;;13.51;68.72;98775.36;104414;1277;110518;-63
2023/05/30 03:16:22;;;;;;;9.50;6.60;;;;;;;13.50;68.72;98776.95;104568;1268;96608;-63
2023/05/30 03:18:49;;;;;;;11.10;6.20;;;;;;;13.50;68.94;98783.81;104584;1275;97386;-62
2023/05/30 03:21:16;;;;;;;10.20;6.10;;;;;;;13.45;69.45;98789.96;104418;1266;97901;-63
2023/05/30 03:23:44;;;;;;;12.00;7.00;;;;;;;13.37;69.92;98791.98;104435;1265;96587;-64
2023/05/30 03:26:11;;;;;;;14.50;6.90;;;;;;;13.33;70.03;98792.60;104520;1274;97891;-66
2023/05/30 03:28:38;;;;;;;11.20;7.60;;;;;;;13.26;70.26;98793.69;104259;1266;96580;-63
2023/05/30 03:31:05;;;;;;;15.20;7.60;;;;;;;13.24;70.42;98790.20;104454;1276;97962;-64
2023/05/30 03:33:32;;;;;;;10.40;6.20;;;;;;;13.29;70.49;98789.95;104430;1274;96616;-64
2023/05/30 03:36:00;;;;;;;11.60;7.50;;;;;;;13.34;70.40;98793.19;104400;1266;97495;-64
2023/05/30 03:38:28;;;;;;;8.80;6.10;;;;;;;13.37;70.80;98793.10;104592;1266;96591;-66
2023/05/30 03:40:55;;;;;;;14.10;6.40;;;;;;;13.38;70.90;98795.34;104576;1276;96763;-64
2023/05/30 03:43:22;;;;;;;10.10;7.00;;;;;;;13.40;70.87;98795.65;104570;1274;96601;-64
2023/05/30 03:45:50;;;;;;;10.80;5.60;;;;;;;13.47;70.84;98792.45;104624;1276;96712;-64
2023/05/30 03:48:17;;;;;;;9.10;6.40;;;;;;;13.50;70.74;98793.56;104639;1265;96520;-64
2023/05/30 03:50:44;;;;;;;11.30;6.40;;;;;;;13.55;70.76;98796.99;104489;1266;96591;-64
2023/05/30 03:53:11;;;;;;;13.30;7.10;;;;;;;13.59;70.73;98793.45;104407;1277;98432;-63
2023/05/30 03:55:40;;;;;;;11.50;6.10;;;;;;;13.55;70.95;98796.86;104472;1275;96582;-62
2023/05/30 03:58:07;;;;;;;13.00;6.30;;;;;;;13.52;70.93;98796.67;104522;1266;96699;-64
2023/05/30 04:00:34;;;;;;;11.20;5.90;;;;;;;13.57;70.77;98796.37;104534;1265;96664;-64
2023/05/30 04:03:02;;;;;;;11.20;6.30;;;;;;;13.61;70.71;98800.00;104574;1266;96654;-65
2023/05/30 04:05:29;;;;;;;10.80;6.00;;;;;;;13.64;70.98;98802.88;104525;1275;97003;-64
2023/05/30 04:07:57;;;;;;;11.10;5.90;;;;;;;13.64;71.29;98802.71;104520;1276;97900;-63
2023/05/30 04:10:25;;;;;;;9.50;5.50;;;;;;;13.65;71.43;98803.00;104493;1265;96631;-63
2023/05/30 04:12:52;;;;;;;10.50;5.70;;;;;;;13.68;71.42;98805.86;104581;1265;96575;-63
2023/05/30 04:15:20;;;;;;;10.90;5.60;;;;;;;13.73;71.10;98807.08;104584;1265;97592;-65
2023/05/30 04:17:47;;;;;;;11.00;6.00;;;;;;;13.79;71.61;98813.92;104614;1276;96579;-63
2023/05/30 04:20:15;;;;;;;9.30;5.60;;;;;;;13.85;71.56;98815.74;104584;1266;96610;-63
2023/05/30 04:22:42;;;;;;;10.30;5.80;;;;;;;13.94;71.61;98816.24;104325;1279;97430;-63
2023/05/30 04:25:10;;;;;;;7.90;5.90;;;;;;;13.99;71.31;98819.27;104577;1265;97233;-63
2023/05/30 04:27:39;;;;;;;8.90;5.40;;;;;;;14.00;71.38;98821.91;104572;1274;96571;-64
2023/05/30 04:30:16;;;;;;;10.90;6.30;;;;;;;14.06;71.72;98821.05;104621;1274;99312;-64
2023/05/30 04:32:45;;;;;;;10.60;6.30;;;;;;;14.09;71.51;98822.80;104647;1266;108532;-63
2023/05/30 04:35:15;;;;;;;9.10;6.30;;;;;;;14.11;71.60;98825.98;104440;1277;97776;-63
2023/05/30 04:37:44;;;;;;;10.20;6.60;;;;;;;14.17;71.00;98824.08;104598;1266;96576;-63
2023/05/30 04:40:14;;;;;;;11.10;6.30;;;;;;;14.28;71.27;98826.31;104561;1276;110687;-67
2023/05/30 04:42:42;;;;;;;10.40;5.90;;;;;;;14.44;71.14;98828.15;104601;1266;99476;-64
2023/05/30 04:45:16;;;;;;;13.20;6.90;;;;;;;14.57;71.25;98830.76;104504;1277;109136;-64
2023/05/30 04:47:44;;;;;;;10.50;6.50;;;;;;;14.69;71.62;98832.15;104471;1276;96687;-66
2023/05/30 04:50:14;;;;;;;10.00;6.60;;;;;;;14.82;71.03;98834.38;104535;1269;97769;-64
2023/05/30 04:52:42;;;;;;;11.00;7.00;;;;;;;14.98;71.17;98838.45;104515;1267;110037;-64
2023/05/30 04:55:13;;;;;;;11.70;6.40;;;;;;;15.19;71.18;98838.30;104811;1270;98986;-64
2023/05/30 04:57:40;;;;;;;11.00;6.90;;;;;;;15.43;70.69;98836.33;104423;1274;108005;-66
2023/05/30 05:00:13;;;;;;;10.00;5.80;;;;;;;15.66;70.21;98838.84;104507;1267;97394;-66
2023/05/30 05:02:44;;;;;;;9.10;5.60;;;;;;;15.88;67.97;98841.77;104596;1273;96583;-63
2023/05/30 05:05:12;;;;;;;15.20;6.30;;;;;;;15.97;67.35;98840.94;104590;1269;109978;-63
2023/05/30 05:07:39;;;;;;;12.30;6.50;;;;;;;15.97;66.78;98842.36;104584;1266;97861;-63
2023/05/30 05:10:10;;;;;;;8.80;5.70;;;;;;;16.00;67.27;98844.87;104576;1276;108724;-63
2023/05/30 05:12:39;;;;;;;9.00;5.70;;;;;;;16.10;67.09;98848.88;104367;1269;96754;-63
2023/05/30 05:15:08;;;;;;;10.10;5.80;;;;;;;16.17;66.95;98846.80;104546;1267;97493;-63
2023/05/30 05:17:36;;;;;;;8.80;6.10;;;;;;;16.20;67.04;98851.95;104459;1268;109462;-67
2023/05/30 05:20:08;;;;;;;12.90;5.90;;;;;;;16.24;66.43;98855.02;104380;1276;98174;-64
2023/05/30 05:22:39;;;;;;;8.60;6.10;;;;;;;16.30;66.60;98856.36;104479;1274;109662;-66
2023/05/30 05:25:08;;;;;;;8.00;5.90;;;;;;;16.38;66.27;98857.09;104661;1274;96512;-64
2023/05/30 05:27:35;;;;;;;9.90;6.50;;;;;;;16.46;66.07;98857.88;104604;1265;96539;-64
2023/05/30 05:30:03;;;;;;;10.40;6.10;;;;;;;16.50;66.49;98857.45;104595;1270;96959;-67
2023/05/30 05:32:36;;;;;;;9.30;5.80;;;;;;;16.54;66.35;98857.40;104618;1274;96602;-64
2023/05/30 05:35:05;;;;;;;9.70;5.80;;;;;;;16.55;65.41;98862.02;104427;1267;107820;-64
2023/05/30 05:37:32;;;;;;;10.30;5.90;;;;;;;16.59;65.55;98865.44;104365;1276;96768;-63
2023/05/30 05:40:01;;;;;;;12.00;6.20;;;;;;;16.66;65.76;98867.97;104584;1267;96587;-65
2023/05/30 05:42:28;;;;;;;9.60;5.60;;;;;;;16.81;65.50;98867.36;104290;1268;111315;-67
2023/05/30 05:44:55;;;;;;;11.20;5.90;;;;;;;16.88;64.44;98868.17;104444;1276;99370;-65
2023/05/30 05:47:23;;;;;;;10.30;5.80;;;;;;;16.89;64.01;98869.48;104504;1274;99354;-65
2023/05/30 05:49:51;;;;;;;10.50;6.00;;;;;;;17.00;64.95;98877.38;104496;1276;97851;-64
2023/05/30 05:52:20;;;;;;;9.90;5.70;;;;;;;17.14;65.17;98881.34;105696;1276;97996;-66
2023/05/30 05:54:47;;;;;;;9.40;5.10;;;;;;;17.34;64.32;98879.13;104629;1273;112291;-66
2023/05/30 05:57:15;;;;;;;9.20;5.30;;;;;;;17.54;63.72;98883.22;104628;1276;98028;-66
2023/05/30 05:59:42;;;;;;;9.90;5.20;;;;;;;17.80;62.74;98881.91;104558;1264;98012;-65
2023/05/30 06:02:10;;;;;;;10.50;6.10;;;;;;;17.91;61.98;98879.64;104513;1267;101553;-66
2023/05/30 06:04:38;;;;;;;10.40;5.30;;;;;;;18.00;61.40;98886.91;104650;1263;99110;-67
2023/05/30 06:07:05;;;;;;;12.80;5.30;;;;;;;18.20;61.19;98890.16;104526;1274;112644;-64
2023/05/30 06:09:34;;;;;;;8.40;5.90;;;;;;;18.41;60.87;98892.33;104556;1261;99371;-67
2023/05/30 06:12:01;;;;;;;7.70;5.50;;;;;;;18.66;60.94;98893.04;104389;1278;107794;-66
2023/05/30 06:14:30;;;;;;;7.60;5.00;;;;;;;18.85;59.14;98898.52;104562;1267;98106;-64
2023/05/30 06:16:59;;;;;;;10.50;5.50;;;;;;;18.89;58.57;98897.41;104568;1273;97954;-66
2023/05/30 06:19:26;;;;;;;8.80;5.30;;;;;;;18.86;58.56;98897.66;104559;1266;112096;-67
2023/05/30 06:21:53;;;;;;;11.40;6.60;;;;;;;18.88;58.18;98896.67;104598;1274;98089;-61
2023/05/30 06:24:20;;;;;;;9.90;5.70;;;;;;;18.98;59.36;98899.82;104606;1275;97939;-62
2023/05/30 06:26:48;;;;;;;9.70;6.00;;;;;;;19.15;57.84;98902.48;104519;1264;98034;-63
2023/05/30 06:29:15;;;;;;;11.50;5.80;;;;;;;19.27;58.06;98903.89;104542;1264;97996;-63
2023/05/30 06:31:42;;;;;;;9.80;5.50;;;;;;;19.24;56.14;98902.41;104446;1266;98012;-64
2023/05/30 06:34:10;;;;;;;8.20;5.10;;;;;;;19.20;57.06;98905.20;104464;1263;97909;-64
2023/05/30 06:36:37;;;;;;;9.70;5.20;;;;;;;19.18;56.11;98907.85;104578;1274;98002;-63
2023/05/30 06:39:04;;;;;;;8.50;5.50;;;;;;;19.22;57.53;98907.53;104503;1264;97923;-63
2023/05/30 06:41:34;;;;;;;9.10;4.70;;;;;;;19.52;56.96;98911.20;104535;1273;99237;-63
2023/05/30 06:44:02;;;;;;;9.60;5.10;;;;;;;19.73;56.59;98910.23;104453;1270;112176;-64
2023/05/30 06:46:29;;;;;;;10.40;5.00;;;;;;;19.87;55.23;98913.66;105059;1267;97913;-66
2023/05/30 06:48:56;;;;;;;11.40;4.70;;;;;;;19.84;55.40;98914.40;104629;1273;97925;-63
2023/05/30 06:51:24;;;;;;;10.60;5.40;;;;;;;20.01;56.19;98916.60;104510;1273;99201;-62
2023/05/30 06:53:51;;;;;;;8.50;5.00;;;;;;;20.25;56.72;98914.63;104618;1264;98840;-65
2023/05/30 06:56:19;;;;;;;12.50;5.10;;;;;;;20.41;55.65;98917.48;104642;1264;112225;-65
2023/05/30 06:58:47;;;;;;;9.10;4.90;;;;;;;20.53;54.67;98918.38;104717;1274;99494;-65
2023/05/30 07:01:15;;;;;;;8.90;5.20;;;;;;;20.69;55.25;98922.73;104630;1274;97934;-64
2023/05/30 07:03:42;;;;;;;12.20;5.30;;;;;;;20.81;54.21;98921.15;104512;1266;99113;-65
2023/05/30 07:06:10;;;;;;;10.40;5.70;;;;;;;20.80;53.54;98923.69;104614;1275;98437;-65
2023/05/30 07:08:37;;;;;;;9.70;5.50;;;;;;;20.74;53.82;98921.14;104386;1266;111116;-66
2023/05/30 07:11:08;;;;;;;12.70;5.50;;;;;;;20.75;54.18;98921.94;104646;1274;99243;-65
2023/05/30 07:13:35;;;;;;;7.90;5.30;;;;;;;20.92;54.18;98922.20;104521;1269;107083;-64
2023/05/30 07:16:03;;;;;;;15.30;5.50;;;;;;;21.08;54.27;98925.49;104600;1276;98128;-64
2023/05/30 07:18:30;;;;;;;9.60;4.90;;;;;;;21.16;54.65;98928.63;104593;1264;98354;-64
2023/05/30 07:20:58;;;;;;;8.30;5.00;;;;;;;21.25;55.52;98928.58;104628;1264;112364;-63
2023/05/30 07:23:26;;;;;;;7.20;4.90;;;;;;;21.39;55.75;98926.19;104643;1270;99159;-64
2023/05/30 07:25:53;;;;;;;9.60;5.10;;;;;;;21.68;55.34;98923.78;104562;1277;107087;-65
2023/05/30 07:28:22;;;;;;;12.00;5.60;;;;;;;21.75;53.10;98926.09;104515;1277;98078;-64
2023/05/30 07:30:49;;;;;;;9.70;5.80;;;;;;;21.72;52.21;98925.73;104596;1261;98032;-64
2023/05/30 07:33:17;;;;;;;7.80;5.00;;;;;;;21.88;51.85;98926.55;104560;1264;99222;-64
2023/05/30 07:35:45;;;;;;;9.90;4.70;;;;;;;21.95;52.14;98927.81;104573;1273;97905;-64
2023/05/30 07:38:12;;;;;;;9.00;4.80;;;;;;;22.18;52.81;98927.52;104457;1272;108788;-65
2023/05/30 07:40:39;;;;;;;6.50;4.60;;;;;;;22.33;50.75;98927.88;104630;1264;98020;-65
2023/05/30 07:43:06;;;;;;;7.20;4.50;;;;;;;22.65;51.37;98931.30;105603;1263;97932;-64
2023/05/30 07:45:33;;;;;;;8.20;4.50;;;;;;;23.15;50.19;98927.02;104531;1264;99251;-63
2023/05/30 07:48:00;;;;;;;10.20;3.90;;;;;;;23.48;48.45;98929.95;104557;1274;99235;-64
2023/05/30 07:50:28;;;;;;;6.40;4.30;;;;;;;23.29;45.51;98924.76;104465;1266;97941;-64
2023/05/30 07:52:56;;;;;;;8.60;4.20;;;;;;;23.11;46.72;98926.27;104510;1264;97906;-64
2023/05/30 07:55:26;;;;;;;6.20;4.10;;;;;;;22.90;45.80;98927.37;104569;1273;98002;-65
2023/05/30 07:57:53;;;;;;;8.90;4.90;;;;;;;22.58;46.69;98929.49;104298;1276;110842;-64
2023/05/30 08:00:21;;;;;;;10.40;4.60;;;;;;;22.65;48.24;98932.34;104599;1264;99146;-71
2023/05/30 08:02:48;;;;;;;7.20;4.60;;;;;;;23.03;48.31;98930.47;104325;1261;108227;-64
2023/05/30 08:05:16;;;;;;;7.90;4.20;;;;;;;23.42;48.33;98933.19;104547;1264;98005;-65
2023/05/30 08:07:43;;;;;;;7.70;4.40;;;;;;;23.70;47.46;98932.07;104455;1274;99221;-68
2023/05/30 08:10:10;;;;;;;8.00;4.20;;;;;;;23.86;47.22;98930.48;104640;1264;98002;-63
2023/05/30 08:12:38;;;;;;;7.00;4.30;;;;;;;24.11;47.02;98929.09;104603;1264;97906;-63
2023/05/30 08:15:07;;;;;;;5.50;4.10;;;;;;;24.27;44.89;98931.58;104603;1273;99119;-63
2023/05/30 08:17:34;;;;;;;9.80;4.50;;;;;;;24.12;45.27;98935.33;104554;1267;98115;-63
2023/05/30 08:20:03;;;;;;;9.80;4.20;;;;;;;24.17;44.82;98935.73;104623;1264;99257;-64
2023/05/30 08:22:31;;;;;;;5.60;3.70;;;;;;;24.36;44.70;98936.52;104332;1260;110724;-64
2023/05/30 08:24:59;;;;;;;5.60;4.00;;;;;;;24.43;43.74;98935.09;104628;1266;97963;-64
2023/05/30 08:27:27;;;;;;;7.60;3.80;;;;;;;24.40;44.03;98932.28;104597;1260;108625;-63
2023/05/30 08:29:54;;;;;;;7.50;4.50;;;;;;;24.48;44.95;98928.92;104579;1274;97905;-62
2023/05/30 08:32:22;;;;;;;5.80;3.50;;;;;;;24.70;44.11;98934.97;104602;1266;98519;-63
2023/05/30 08:34:49;;;;;;;6.70;3.80;;;;;;;24.88;42.12;98936.61;104296;1279;111834;-63
2023/05/30 08:37:18;;;;;;;7.60;3.50;;;;;;;24.94;42.13;98936.77;104753;1266;97941;-62
2023/05/30 08:39:46;;;;;;;5.00;3.80;;;;;;;25.12;42.31;98938.95;104580;1281;108064;-63
2023/05/30 08:42:14;;;;;;;6.90;3.80;;;;;;;25.31;42.17;98942.64;104344;1273;98020;-63
2023/05/30 08:44:42;;;;;;;5.90;3.50;;;;;;;25.47;40.99;98941.91;104408;1260;98030;-63
2023/05/30 08:47:12;;;;;;;4.70;3.20;;;;;;;25.44;41.23;98939.19;104562;1266;110850;-63
2023/05/30 08:49:42;;;;;;;5.90;3.50;;;;;;;25.51;40.56;98937.89;104380;1271;99114;-63
2023/05/30 08:52:16;;;;;;;4.40;3.60;;;;;;;25.42;41.06;98939.14;104609;1266;108596;-63
2023/05/30 08:55:19;;;;;;;7.50;3.70;;;;;;;25.52;41.36;98939.56;104368;1267;100731;-64
2023/05/30 08:58:11;;;;;;;4.90;3.30;;;;;;;25.13;39.77;98945.51;104513;1273;99159;-63
2023/05/30 09:00:40;;;;;;;4.20;3.10;;;;;;;24.83;39.59;98939.97;104598;1263;112424;-63
2023/05/30 09:03:09;;;;;;;6.30;3.60;;;;;;;24.90;39.21;98940.13;104567;1276;98409;-63
2023/05/30 09:05:40;;;;;;;4.80;3.40;;;;;;;24.81;39.49;98941.98;104582;1266;108622;-63
2023/05/30 09:08:08;;;;;;;5.10;3.70;;;;;;;24.64;40.91;98942.73;104508;1276;98012;-63
2023/05/30 09:10:36;;;;;;;7.60;3.40;;;;;;;24.96;39.99;98944.52;104383;1266;99501;-62
2023/05/30 09:13:04;;;;;;;5.20;3.10;;;;;;;24.89;38.57;98937.81;104601;1264;112253;-63
2023/05/30 09:15:32;;;;;;;8.10;3.60;;;;;;;24.96;39.38;98942.03;104578;1268;98172;-62
2023/05/30 09:18:00;;;;;;;5.80;3.10;;;;;;;25.33;38.81;98946.87;104591;1264;99244;-62
2023/05/30 09:20:31;;;;;;;5.70;3.40;;;;;;;25.10;36.90;98944.96;104368;1271;97913;-62
2023/05/30 09:23:01;;;;;;;9.30;3.80;;;;;;;24.62;38.41;98939.54;104538;1267;98085;-62
2023/05/30 09:25:46;;;;;;;5.00;3.20;;;;;;;24.34;38.97;98939.98;104245;1270;111265;-62
2023/05/30 09:28:15;;;;;;;5.80;3.00;;;;;;;24.40;36.70;98943.58;104597;1266;99451;-62
2023/05/30 09:31:02;;;;;;;4.40;2.90;;;;;;;24.50;37.35;98937.33;104410;1267;107604;-65
2023/05/30 09:33:51;;;;;;;4.90;3.00;;;;;;;24.48;36.49;98937.56;104638;1269;98082;-63
2023/05/30 09:36:20;;;;;;;6.10;3.30;;;;;;;24.56;37.75;98938.44;104627;1273;98027;-63
2023/05/30 09:38:55;;;;;;;3.70;2.80;;;;;;;25.13;36.22;98940.38;104537;1260;111326;-63
2023/05/30 09:41:27;;;;;;;4.40;2.60;;;;;;;25.59;34.02;98930.23;104552;1260;98726;-63
2023/05/30 09:43:56;;;;;;;5.20;2.50;;;;;;;25.16;34.26;98933.88;104602;1266;108559;-63
2023/05/30 09:46:28;;;;;;;6.30;2.70;;;;;;;25.16;35.83;98937.80;104583;1264;99215;-64
2023/05/30 09:48:57;;;;;;;3.40;2.60;;;;;;;25.42;35.48;98939.23;104401;1267;97928;-64
2023/05/30 09:51:25;;;;;;;5.00;2.30;;;;;;;25.73;34.94;98939.30;104341;1276;111051;-62
2023/05/30 09:54:00;;;;;;;4.30;2.10;;;;;;;26.15;32.59;98945.83;104484;1269;99578;-62
2023/05/30 09:56:40;;;;;;;3.90;2.40;;;;;;;25.94;32.31;98938.27;104511;1274;107380;-63
2023/05/30 09:59:11;;;;;;;5.20;2.60;;;;;;;26.04;33.39;98939.58;104502;1266;97995;-63
2023/05/30 10:01:41;;;;;;;;;;;;;;;26.32;33.36;98938.17;104666;1264;99219;-63
2023/05/30 10:04:22;;;;;;;5.30;3.00;;;;;;;26.44;33.48;98941.99;104406;1281;110166;-63
2023/05/30 10:06:52;;;;;;;6.70;2.70;;;;;;;26.69;33.41;98944.71;104483;1261;99012;-62
2023/05/30 10:09:21;;;;;;;5.40;2.60;;;;;;;27.26;33.26;98943.70;104605;1264;109544;-62
2023/05/30 10:11:50;;;;;;;4.90;3.10;;;;;;;27.52;32.35;98941.91;104416;1266;98063;-63
2023/05/30 10:14:18;;;;;;;4.00;3.10;;;;;;;27.24;32.31;98950.46;104537;1264;97914;-62
2023/05/30 10:17:00;;;;;;;6.30;3.10;;;;;;;27.26;32.96;98948.75;104318;1270;111794;-63
2023/05/30 10:19:42;;;;;;;3.90;2.90;;;;;;;26.90;31.83;98946.27;104220;1260;97915;-62
2023/05/30 10:22:12;;;;;;;6.10;2.90;;;;;;;26.50;32.57;98941.86;104529;1267;107167;-62
2023/05/30 10:24:41;;;;;;;;;;;;;;;26.40;34.24;98942.03;104600;1277;98011;-62
2023/05/30 10:27:15;;;;;;;5.40;3.00;;;;;;;26.32;33.60;98937.03;104584;1265;98471;-62
2023/05/30 10:30:05;;;;;;;5.30;3.20;;;;;;;26.91;33.88;98937.49;104546;1265;112441;-63
2023/05/30 10:32:36;;;;;;;5.30;2.80;;;;;;;27.97;33.15;98933.13;104432;1272;99657;-63
2023/05/30 10:35:15;;;;;;;6.20;2.70;;;;;;;28.63;31.12;98927.55;104365;1269;107265;-63
2023/05/30 10:37:42;;;;;;;6.10;3.20;;;;;;;28.42;30.37;98925.50;104709;1265;98098;-63
2023/05/30 10:40:21;;;;;;;5.20;2.80;;;;;;;28.16;30.83;98926.58;104611;1260;97998;-63
2023/05/30 10:43:23;;;;;;;6.20;2.60;;;;;;;27.93;30.45;98927.98;104465;1270;111204;-62
2023/05/30 10:46:16;;;;;;;4.60;2.70;;;;;;;27.02;30.84;98926.92;104323;1274;98810;-61
2023/05/30 10:49:06;;;;;;;4.60;2.60;;;;;;;26.51;31.00;98936.63;104342;1260;108706;-60
2023/05/30 10:52:11;;;;;;;3.50;2.30;;;;;;;26.64;31.97;98931.36;104294;1270;98711;-62
2023/05/30 10:54:42;;;;;;;4.50;2.80;;;;;;;27.06;32.05;98927.86;104479;1269;98018;-62
2023/05/30 10:57:24;;;;;;;5.40;3.10;;;;;;;27.66;30.82;98920.73;104319;1270;111331;-63
2023/05/30 10:59:54;;;;;;;5.50;2.80;;;;;;;27.42;31.44;98927.48;104480;1272;98048;-63
2023/05/30 11:02:35;;;;;;;4.90;2.60;;;;;;;27.96;31.06;98927.14;104551;1267;107558;-63
2023/05/30 11:05:19;;;;;;;5.20;2.60;;;;;;;28.08;30.09;98925.49;104161;1270;98072;-63
2023/05/30 11:07:50;;;;;;;5.80;2.90;;;;;;;27.52;29.97;98926.96;104422;1267;97858;-63
2023/05/30 11:10:26;;;;;;;4.20;2.50;;;;;;;26.77;30.62;98929.21;104573;1261;99151;-64
2023/05/30 11:13:10;;;;;;;5.30;2.40;;;;;;;26.85;31.46;98922.23;104517;1267;98466;-63
2023/05/30 11:15:46;;;;;;;5.80;2.70;;;;;;;27.67;31.67;98925.30;104532;1265;108134;-64
2023/05/30 11:18:20;;;;;;;4.20;2.70;;;;;;;28.41;29.84;98920.70;104424;1267;98165;-64
2023/05/30 11:20:58;;;;;;;7.50;2.80;;;;;;;28.94;29.61;98916.91;104402;1266;98061;-63
2023/05/30 11:24:00;;;;;;;4.60;2.70;;;;;;;29.27;29.17;98913.96;104395;1274;111465;-64
2023/05/30 11:27:16;;;;;;;4.20;2.30;;;;;;;29.55;28.42;98917.66;104488;1261;99454;-64
2023/05/30 11:29:53;;;;;;;4.60;2.80;;;;;;;29.83;27.16;98916.38;103904;1273;108784;-63
2023/05/30 11:32:30;;;;;;;5.20;2.60;;;;;;;29.95;27.78;98922.86;104128;1279;98040;-64
2023/05/30 11:35:02;;;;;;;4.60;2.50;;;;;;;30.52;27.10;98924.22;104021;1267;97910;-64